Hauptseite
METAR-TAF:

METAR-TAF

Flughäfen :

Flughafen Turin

Turin, Italien

Breite: 45-13N, Länge: 007-39E, Höhe: 301 m

Beobachtung

Neuester Wetterbericht von vor 42 Minuten, um 20:50 UTC
Wind 3 kt aus Nordwest
Temperatur 0°C
Luftfeuchtigkeit 86%
Luftdruck 1019 hPa
Sichtweite: 5000 m
feuchter Dunst

METAR: LIMF 152050Z 32003KT 5000 BR NSC M00/M02 Q1019

Zeit: 22:32 (21:32 UTC)

Prognose

Neuester Wetterbericht von vor 4 Stunden und 32 Minuten, um 17:00 UTC
Gültige Prognose vom 15 um 18 UTC bis 16 um 18 UTC
Wind 5 kt aus unterschiedlichen Richtungen
Sichtweite: 7000 m
Aufgelockert bewölkt in der Höhe von 5000 ft

TAF: LIMF 151700Z 1518/1618 VRB05KT 7000 SCT050

Wetterbeobachtungen und Prognosen von mehr als 4000 Flughäfen (METAR und TAF Bericht).

Die verfügbaren Stationen werden durch gelbe und rote Markierungen auf der Karte dargestellt.

Führen Sie die Maus auf sie, um den Namen der Station zu sehen.

Darauf klicken, um die Beobachtung von Wetterbeobachtungen und Prognosen zu sehen.

Um die Karte zu ändern : klicken Sie auf den grünen Tasten mit einem schwarzen Kreuz Zum Vergrößern, auf den grünen Button mit einem Gedankenstrich zu verkleinern, oder auf die grünen Pfeile für benachbarte Karten.


METAR-TAF: